Sarasota, FL

00:12 EDT le 23 mai 2015 (GMT -0400)
Desoto Lakes | | Change Station
CLOSE
Current Station
Stations météorologiques personnelles
Location: Sarasota, FL
Altitude: 59 ft
Stations météo à proximité

Alt. 59 ft 27.37 °N, 82.49 °W | Updated 2 seconds ago

Ciel dégagé
Ciel dégagé
72.7 ° F
Paraît 71 ° F
N
1.1
Vent Variable Vent de ESE
Gusts 2.2 mph

Aujourd'hui
Haut(e) -- | Bas -- ° F
--% Risque de précip.
Hier
Haut(e) -- | Bas -- ° F
Precip. -- pouce
6:37 AM 8:15 PM
Lune montante, 26% visible
Pression 30.14 pouce
Visibilité 10.0 Miles terrestres
Nuages Ciel dégagé
indice de chaleur 71 ° F
Point de rosée 69 ° F
Humidité 87%
Précipitations 0.00 pouce
Profondeur de la couche neigeuse Non disponible.
UV 0 sur 12
Pollen 5.50 sur 12
Qualité de l'air Non disponible.
Flu Activity Sporadic
METAR KSRQ 230353Z AUTO 02003KT 10SM CLR 23/19 A3014 RMK AO2 SLP204 T02330189

More Conditions Fewer Conditions

Pression 30.14 pouce
Visibilité 10.0 Miles terrestres
Nuages Ciel dégagé
indice de chaleur 71 ° F
Point de rosée 69 ° F
Humidité 87%
Précipitations 0.00 pouce
Profondeur de la couche neigeuse Non disponible.
UV 0 sur 12
Pollen 5.50 sur 12
Qualité de l'air Non disponible.
Flu Activity Sporadic
METAR KSRQ 230353Z AUTO 02003KT 10SM CLR 23/19 A3014 RMK AO2 SLP204 T02330189

More Conditions Fewer Conditions

10-Day Weather Forecast

Almanac

Astronomie

May. 23, 2015 Lever Coucher
Temps réel
Crépuscule civil
Crépuscule nautique
Crépuscule astronomique
Lune
Durée de lumière visible
Longueur du jour
Tomorrow will be .
, % of the Moon is Illuminated

Extrêmes aujourd'hui

State Highs State Lows

Community

WunderPhotos

Upload Photos

1,823,392 Photos téléchargées !

WunderBlogs® & News

Nearby

Qualité de l'air

  Qualité de l'air Indice de la qualité de l'air Polluant
Not available.

Épaisseur de neige

Station Depth Altitude

Activité sismique

Ville Distance Mag. Time & Date
Minimum magnitude displayed is 2.5.

Températures des eaux côtières

Lieu Température

Stations

Stations météo à proximité

Emplacement de la station Température Refroidissement éolien Point de rosée Humidité Vent Precip. Alt. Mise à jour Type